createdAt,value
2018-11-02T00:01:15.514Z,2.70
2018-11-02T00:03:44.212Z,2.20
2018-11-02T00:06:12.938Z,1.97
2018-11-02T00:08:42.287Z,2.70
2018-11-02T00:11:11.399Z,2.60
2018-11-02T00:13:40.270Z,2.13
2018-11-02T00:16:08.873Z,2.13
2018-11-02T00:18:37.524Z,2.00
2018-11-02T00:21:06.200Z,1.93
2018-11-02T00:23:35.606Z,1.90
2018-11-02T00:26:04.269Z,2.10
2018-11-02T00:28:32.955Z,1.93
2018-11-02T00:31:01.787Z,2.40
2018-11-02T00:33:30.492Z,2.03
2018-11-02T00:35:59.121Z,2.57
2018-11-02T00:38:27.943Z,2.13
2018-11-02T00:40:56.558Z,1.43
2018-11-02T00:43:25.242Z,1.30
2018-11-02T00:45:53.965Z,2.67
2018-11-02T00:48:22.890Z,1.40
2018-11-02T00:50:52.176Z,1.90
2018-11-02T00:53:21.241Z,1.80
2018-11-02T00:55:50.069Z,2.10
2018-11-02T00:58:18.769Z,2.50
2018-11-02T01:00:47.471Z,1.43
2018-11-02T01:03:16.125Z,1.63
2018-11-02T01:05:44.768Z,1.50
2018-11-02T01:08:13.473Z,1.60
2018-11-02T01:10:42.401Z,1.17
2018-11-02T01:13:11.130Z,1.50
2018-11-02T01:15:39.845Z,1.20
2018-11-02T01:18:08.604Z,1.67
2018-11-02T01:20:37.290Z,1.40
2018-11-02T01:23:06.369Z,1.50
2018-11-02T01:25:35.166Z,1.83
2018-11-02T01:28:04.050Z,1.60
2018-11-02T01:30:32.798Z,1.60
2018-11-02T01:33:01.866Z,1.53
2018-11-02T01:35:30.632Z,1.90
2018-11-02T01:37:59.571Z,1.43
2018-11-02T01:40:28.279Z,1.67
2018-11-02T01:42:57.001Z,1.77
2018-11-02T01:45:25.780Z,1.57
2018-11-02T01:47:54.409Z,2.10
2018-11-02T01:50:23.075Z,1.93
2018-11-02T01:52:51.710Z,1.67
2018-11-02T01:55:20.406Z,1.40
2018-11-02T01:57:49.091Z,1.53
2018-11-02T02:00:17.774Z,2.00
2018-11-02T02:02:46.526Z,1.60
2018-11-02T02:05:15.365Z,1.77
2018-11-02T02:07:44.191Z,2.10
2018-11-02T02:10:13.404Z,1.43
2018-11-02T02:12:42.009Z,1.50
2018-11-02T02:15:11.376Z,1.90
2018-11-02T02:17:40.035Z,1.43
2018-11-02T02:20:09.210Z,1.70
2018-11-02T02:22:37.950Z,1.13
2018-11-02T02:25:07.316Z,1.70
2018-11-02T02:27:36.954Z,1.90
2018-11-02T02:30:07.892Z,1.63
2018-11-02T02:32:36.688Z,1.60
2018-11-02T02:35:05.777Z,1.80
2018-11-02T02:37:34.610Z,1.60
2018-11-02T02:40:03.341Z,1.20
2018-11-02T02:42:32.247Z,1.30
2018-11-02T02:45:00.967Z,1.30
2018-11-02T02:47:30.369Z,1.83
2018-11-02T02:49:59.024Z,1.47
2018-11-02T02:52:28.166Z,2.10
2018-11-02T02:54:57.073Z,1.53
2018-11-02T02:57:25.637Z,1.30
2018-11-02T02:59:54.592Z,1.83
2018-11-02T03:02:23.215Z,1.57
2018-11-02T03:04:51.938Z,1.77
2018-11-02T03:07:20.640Z,2.10
2018-11-02T03:09:49.307Z,1.90
2018-11-02T03:12:18.015Z,2.17
2018-11-02T03:14:46.795Z,2.40
2018-11-02T03:17:15.749Z,1.63
2018-11-02T03:19:44.474Z,2.27
2018-11-02T03:22:13.172Z,2.43
2018-11-02T03:24:42.109Z,2.30
2018-11-02T03:27:10.887Z,3.07
2018-11-02T03:29:39.576Z,2.50
2018-11-02T03:32:08.912Z,3.20
2018-11-02T03:34:37.594Z,3.03
2018-11-02T03:37:06.630Z,2.87
2018-11-02T03:39:35.222Z,2.77
2018-11-02T03:42:03.842Z,3.27
2018-11-02T03:44:32.490Z,3.30
2018-11-02T03:47:01.269Z,3.30
2018-11-02T03:49:29.904Z,2.70
2018-11-02T03:51:58.669Z,2.53
2018-11-02T03:54:27.366Z,2.80
2018-11-02T03:56:56.060Z,2.90
2018-11-02T03:59:24.620Z,2.70
2018-11-02T04:01:53.377Z,3.10
2018-11-02T04:04:22.002Z,3.13
2018-11-02T04:06:50.650Z,3.10
2018-11-02T04:09:19.310Z,2.60
2018-11-02T04:11:47.928Z,2.97
2018-11-02T04:14:16.905Z,2.73
2018-11-02T04:16:45.641Z,2.40
2018-11-02T04:19:14.291Z,2.70
2018-11-02T04:21:47.200Z,2.87
2018-11-02T04:24:15.867Z,2.93
2018-11-02T04:26:44.631Z,2.47
2018-11-02T04:29:14.476Z,2.87
2018-11-02T04:31:44.084Z,2.50
2018-11-02T04:34:13.738Z,2.67
2018-11-02T04:36:42.439Z,3.20
2018-11-02T04:39:12.747Z,2.70
2018-11-02T04:41:41.343Z,2.73
2018-11-02T04:44:11.500Z,3.20
2018-11-02T04:46:40.644Z,2.87
2018-11-02T04:49:10.019Z,2.10
2018-11-02T04:51:39.051Z,2.53
2018-11-02T04:54:08.427Z,2.93
2018-11-02T04:56:37.146Z,2.57
2018-11-02T04:59:05.892Z,2.50
2018-11-02T05:01:34.487Z,2.10
2018-11-02T05:04:03.121Z,2.30
2018-11-02T05:06:31.813Z,2.30
2018-11-02T05:09:00.537Z,3.10
2018-11-02T05:11:29.273Z,2.57
2018-11-02T05:13:57.864Z,2.67
2018-11-02T05:16:26.471Z,2.93
2018-11-02T05:18:55.098Z,2.73
2018-11-02T05:21:23.831Z,3.00
2018-11-02T05:23:53.453Z,2.37
2018-11-02T05:26:22.076Z,2.50
2018-11-02T05:28:50.705Z,2.00
2018-11-02T05:31:19.472Z,2.40
2018-11-02T05:33:48.496Z,2.60
2018-11-02T05:36:17.238Z,2.30
2018-11-02T05:38:45.901Z,2.17
2018-11-02T05:41:16.124Z,2.13
2018-11-02T05:43:44.849Z,2.10
2018-11-02T05:46:13.826Z,1.93
2018-11-02T05:48:42.588Z,1.97
2018-11-02T05:51:11.295Z,1.83
2018-11-02T05:53:39.936Z,1.70
2018-11-02T05:56:08.614Z,1.90
2018-11-02T05:58:37.271Z,1.47
2018-11-02T06:01:06.389Z,1.40
2018-11-02T06:03:34.994Z,1.90
2018-11-02T06:06:04.327Z,2.27
2018-11-02T06:08:33.472Z,2.13
2018-11-02T06:11:02.508Z,2.40
2018-11-02T06:13:31.218Z,2.27
2018-11-02T06:16:00.573Z,2.13
2018-11-02T06:18:29.195Z,2.23
2018-11-02T06:20:57.949Z,2.73
2018-11-02T06:23:26.541Z,2.43
2018-11-02T06:25:55.176Z,2.90
2018-11-02T06:28:23.973Z,2.23
2018-11-02T06:30:52.744Z,2.43
2018-11-02T06:33:21.435Z,1.87
2018-11-02T06:35:50.104Z,2.23
2018-11-02T06:38:18.802Z,2.00
2018-11-02T06:40:47.431Z,2.97
2018-11-02T06:43:16.350Z,2.00
2018-11-02T06:45:45.079Z,2.17
2018-11-02T06:48:13.764Z,1.90
2018-11-02T06:50:42.402Z,2.60
2018-11-02T06:53:11.075Z,1.80
2018-11-02T06:55:39.822Z,2.87
2018-11-02T06:58:08.523Z,1.93
2018-11-02T07:00:37.221Z,2.33
2018-11-02T07:03:05.979Z,2.40
2018-11-02T07:05:34.867Z,1.73
2018-11-02T07:08:08.978Z,2.00
2018-11-02T07:10:37.806Z,2.20
2018-11-02T07:13:06.632Z,2.53
2018-11-02T07:15:35.427Z,2.60
2018-11-02T07:18:04.636Z,2.17
2018-11-02T07:20:33.391Z,2.37
2018-11-02T07:23:02.009Z,2.27
2018-11-02T07:25:30.628Z,2.73
2018-11-02T07:27:59.406Z,2.30
2018-11-02T07:30:28.129Z,2.97
2018-11-02T07:32:56.885Z,2.83
2018-11-02T07:35:25.550Z,2.30
2018-11-02T07:37:54.113Z,1.93
2018-11-02T07:40:25.968Z,1.97
2018-11-02T07:42:54.936Z,2.30
2018-11-02T07:45:24.211Z,2.03
2018-11-02T07:47:52.946Z,1.87
2018-11-02T07:50:21.747Z,1.87
2018-11-02T07:52:50.638Z,2.00
2018-11-02T07:55:19.320Z,1.43
2018-11-02T07:57:47.993Z,1.77
2018-11-02T08:00:17.699Z,1.87
2018-11-02T08:02:47.209Z,2.10
2018-11-02T08:05:16.443Z,2.00
2018-11-02T08:07:45.099Z,2.00
2018-11-02T08:10:13.959Z,1.83
2018-11-02T08:12:42.592Z,1.33
2018-11-02T08:15:12.407Z,1.47
2018-11-02T08:17:42.004Z,1.60
2018-11-02T08:20:12.113Z,2.00
2018-11-02T08:22:41.103Z,1.67
2018-11-02T08:25:10.641Z,1.70
2018-11-02T08:27:39.798Z,1.80
2018-11-02T08:30:09.485Z,1.60
2018-11-02T08:32:39.421Z,1.90
2018-11-02T08:35:10.159Z,1.53
2018-11-02T08:37:39.055Z,1.70
2018-11-02T08:40:08.980Z,1.77
2018-11-02T08:42:37.785Z,1.70
2018-11-02T08:45:07.026Z,1.87
2018-11-02T08:47:35.748Z,1.30
2018-11-02T08:50:04.499Z,1.67
2018-11-02T08:52:33.950Z,1.83
2018-11-02T08:55:02.726Z,1.30
2018-11-02T08:57:31.475Z,1.80
2018-11-02T09:00:00.254Z,2.33
2018-11-02T09:02:28.944Z,1.63
2018-11-02T09:04:57.743Z,1.60
2018-11-02T09:07:26.558Z,1.43
2018-11-02T09:09:55.190Z,1.17
2018-11-02T09:12:23.866Z,1.20
2018-11-02T09:14:53.094Z,1.27
2018-11-02T09:17:22.002Z,1.33
2018-11-02T09:19:50.622Z,1.10
2018-11-02T09:22:19.564Z,1.00
2018-11-02T09:24:48.258Z,1.00
2018-11-02T09:27:16.903Z,1.23
2018-11-02T09:29:45.398Z,1.03
2018-11-02T09:32:13.954Z,1.20
2018-11-02T09:34:42.562Z,1.20
2018-11-02T09:37:11.120Z,0.97
2018-11-02T09:39:39.831Z,1.30
2018-11-02T09:42:08.523Z,1.20
2018-11-02T09:44:37.824Z,1.50
2018-11-02T09:47:06.589Z,1.70
2018-11-02T09:49:35.210Z,1.13
2018-11-02T09:52:03.882Z,1.20
2018-11-02T09:54:32.484Z,1.27
2018-11-02T09:57:01.125Z,1.53
2018-11-02T09:59:29.737Z,1.20
2018-11-02T10:01:58.398Z,1.30
2018-11-02T10:04:27.064Z,0.80
2018-11-02T10:06:55.659Z,0.90
2018-11-02T10:09:24.277Z,1.20
2018-11-02T10:11:52.882Z,0.60
2018-11-02T10:14:21.626Z,1.27
2018-11-02T10:16:50.362Z,0.90
2018-11-02T10:19:18.998Z,1.33
2018-11-02T10:21:47.679Z,0.97
2018-11-02T10:24:16.254Z,1.00
2018-11-02T10:26:44.870Z,1.20
2018-11-02T10:29:13.797Z,1.27
2018-11-02T10:31:42.462Z,1.20
2018-11-02T10:34:11.184Z,1.33
2018-11-02T10:36:40.063Z,1.20
2018-11-02T10:39:11.860Z,1.50
2018-11-02T10:41:49.625Z,1.07
2018-11-02T10:44:24.592Z,0.93
2018-11-02T10:46:53.203Z,1.30
2018-11-02T10:49:21.948Z,1.23
2018-11-02T10:51:50.669Z,1.40
2018-11-02T10:54:19.332Z,1.33
2018-11-02T10:56:47.876Z,1.03
2018-11-02T10:59:16.497Z,1.23
2018-11-02T11:01:52.068Z,1.20
2018-11-02T11:04:20.946Z,1.10
2018-11-02T11:06:49.614Z,1.23
2018-11-02T11:09:18.238Z,0.80
2018-11-02T11:11:46.927Z,1.13
2018-11-02T11:14:15.469Z,0.87
2018-11-02T11:16:44.079Z,1.73
2018-11-02T11:19:12.969Z,1.33
2018-11-02T11:21:42.318Z,0.90
2018-11-02T11:24:11.050Z,0.93
2018-11-02T11:26:40.294Z,0.90
2018-11-02T11:29:09.128Z,1.53
2018-11-02T11:31:38.270Z,1.27
2018-11-02T11:34:07.971Z,1.23
2018-11-02T11:36:36.681Z,0.70
2018-11-02T11:39:10.314Z,0.90
2018-11-02T11:41:38.945Z,0.80
2018-11-02T11:44:07.852Z,0.73
2018-11-02T11:46:36.601Z,0.83
2018-11-02T11:49:06.468Z,0.80
2018-11-02T11:51:35.049Z,0.90
2018-11-02T11:54:03.742Z,1.00
2018-11-02T11:56:32.672Z,1.30
2018-11-02T11:59:01.551Z,0.77
2018-11-02T12:01:30.258Z,1.30
2018-11-02T12:03:58.929Z,0.97
2018-11-02T12:06:27.571Z,1.00
2018-11-02T12:08:56.473Z,1.13
2018-11-02T12:11:25.147Z,1.10
2018-11-02T12:13:53.785Z,1.37
2018-11-02T12:16:22.400Z,0.97
2018-11-02T12:18:51.001Z,1.07
2018-11-02T12:21:19.705Z,0.90
2018-11-02T12:23:48.310Z,0.87
2018-11-02T12:26:16.943Z,1.00
2018-11-02T12:28:45.663Z,0.90
2018-11-02T12:31:14.275Z,1.00
2018-11-02T12:33:43.296Z,0.80
2018-11-02T12:36:12.725Z,1.03
2018-11-02T12:38:41.349Z,0.87
2018-11-02T12:41:09.964Z,1.10
2018-11-02T12:43:38.783Z,1.00
2018-11-02T12:46:07.350Z,1.10
2018-11-02T12:48:36.066Z,0.83
2018-11-02T12:51:04.655Z,1.17
2018-11-02T12:53:33.319Z,1.20
2018-11-02T12:56:02.031Z,0.87
2018-11-02T12:58:30.616Z,1.10
2018-11-02T13:00:59.388Z,1.27
2018-11-02T13:03:28.194Z,1.20
2018-11-02T13:05:57.040Z,0.90
2018-11-02T13:08:25.740Z,1.37
2018-11-02T13:10:54.492Z,0.87
2018-11-02T13:13:23.303Z,1.30
2018-11-02T13:15:52.048Z,1.00
2018-11-02T13:18:21.001Z,0.80
2018-11-02T13:20:50.266Z,1.23
2018-11-02T13:23:18.905Z,1.37
2018-11-02T13:25:47.566Z,1.00
2018-11-02T13:28:16.406Z,0.80
2018-11-02T13:30:45.306Z,1.30
2018-11-02T13:33:14.082Z,0.93
2018-11-02T13:35:42.680Z,1.03
2018-11-02T13:38:11.468Z,1.03
2018-11-02T13:40:40.142Z,0.77
2018-11-02T13:43:09.203Z,1.13
2018-11-02T13:45:37.833Z,1.03
2018-11-02T13:48:06.443Z,1.10
2018-11-02T13:50:35.210Z,1.03
2018-11-02T13:53:03.769Z,0.90
2018-11-02T13:55:32.421Z,1.10
2018-11-02T13:58:01.109Z,1.20
2018-11-02T14:00:29.963Z,1.00
2018-11-02T14:02:58.623Z,1.27
2018-11-02T14:05:27.250Z,1.10
2018-11-02T14:07:55.898Z,1.20
2018-11-02T14:10:24.533Z,1.03
2018-11-02T14:12:53.245Z,1.37
2018-11-02T14:15:21.875Z,0.90
2018-11-02T14:17:51.085Z,1.40
2018-11-02T14:20:19.810Z,1.20
2018-11-02T14:22:48.443Z,1.20
2018-11-02T14:25:17.796Z,1.20
2018-11-02T14:27:46.580Z,0.90
2018-11-02T14:30:16.621Z,1.17
2018-11-02T14:32:46.813Z,1.60
2018-11-02T14:35:15.587Z,0.83
2018-11-02T14:37:44.377Z,1.20
2018-11-02T14:40:13.154Z,1.00
2018-11-02T14:42:42.837Z,1.47
2018-11-02T14:45:15.099Z,1.00
2018-11-02T14:47:44.841Z,0.97
2018-11-02T14:50:13.521Z,1.00
2018-11-02T14:52:42.176Z,1.10
2018-11-02T14:55:11.021Z,1.30
2018-11-02T14:57:40.018Z,1.10
2018-11-02T15:00:10.428Z,1.30
2018-11-02T15:02:39.575Z,1.43
2018-11-02T15:05:09.404Z,1.20
2018-11-02T15:07:40.371Z,1.33
2018-11-02T15:10:09.175Z,1.40
2018-11-02T15:12:38.511Z,1.03
2018-11-02T15:15:07.853Z,1.10
2018-11-02T15:17:36.529Z,1.20
2018-11-02T15:20:07.423Z,1.00
2018-11-02T15:22:36.194Z,1.20
2018-11-02T15:25:05.219Z,1.43
2018-11-02T15:27:33.902Z,1.70
2018-11-02T15:30:02.525Z,1.03
2018-11-02T15:32:31.138Z,1.40
2018-11-02T15:34:59.857Z,2.03
2018-11-02T15:37:28.615Z,1.40
2018-11-02T15:39:57.323Z,1.30
2018-11-02T15:42:26.040Z,1.23
2018-11-02T15:44:54.854Z,1.30
2018-11-02T15:47:23.584Z,1.43
2018-11-02T15:49:52.226Z,1.30
2018-11-02T15:52:21.062Z,1.10
2018-11-02T15:54:49.808Z,1.53
2018-11-02T15:57:18.535Z,1.80
2018-11-02T15:59:47.163Z,1.63
2018-11-02T16:02:16.126Z,1.60
2018-11-02T16:04:44.863Z,1.50
2018-11-02T16:07:13.457Z,1.70
2018-11-02T16:09:42.052Z,1.40
2018-11-02T16:12:10.713Z,1.50
2018-11-02T16:14:39.614Z,1.50
2018-11-02T16:17:09.057Z,1.40
2018-11-02T16:19:37.668Z,1.63
2018-11-02T16:22:06.081Z,1.50
2018-11-02T16:24:34.868Z,2.07
2018-11-02T16:27:04.369Z,1.60
2018-11-02T16:29:33.131Z,1.40
2018-11-02T16:32:01.830Z,1.80
2018-11-02T16:34:30.582Z,1.40
2018-11-02T16:36:59.290Z,1.50
2018-11-02T16:39:27.939Z,1.40
2018-11-02T16:41:56.681Z,1.47
2018-11-02T16:44:25.538Z,1.50
2018-11-02T16:46:54.180Z,1.50
2018-11-02T16:49:23.314Z,1.40
2018-11-02T16:51:52.054Z,1.37
2018-11-02T16:54:20.819Z,1.50
2018-11-02T16:56:49.546Z,1.93
2018-11-02T16:59:18.293Z,1.47
2018-11-02T17:01:47.018Z,1.83
2018-11-02T17:04:15.783Z,1.43
2018-11-02T17:06:44.457Z,1.50
2018-11-02T17:09:13.889Z,1.83
2018-11-02T17:11:42.678Z,1.47
2018-11-02T17:14:11.448Z,1.83
2018-11-02T17:16:40.158Z,1.43
2018-11-02T17:19:08.748Z,1.50
2018-11-02T17:21:37.462Z,1.77
2018-11-02T17:24:06.355Z,2.10
2018-11-02T17:26:34.970Z,1.73
2018-11-02T17:29:03.761Z,1.73
2018-11-02T17:31:32.460Z,1.77
2018-11-02T17:34:01.192Z,2.00
2018-11-02T17:36:34.187Z,2.10
2018-11-02T17:39:02.885Z,1.87
2018-11-02T17:41:31.533Z,2.33
2018-11-02T17:44:00.275Z,2.57
2018-11-02T17:46:29.044Z,2.40
2018-11-02T17:48:57.709Z,2.90
2018-11-02T17:51:26.802Z,2.17
2018-11-02T17:53:55.420Z,2.40
2018-11-02T17:56:28.217Z,2.50
2018-11-02T17:58:56.885Z,2.53
2018-11-02T18:01:25.594Z,2.83
2018-11-02T18:03:54.272Z,2.83
2018-11-02T18:06:22.890Z,2.50
2018-11-02T18:08:51.565Z,2.60
2018-11-02T18:11:20.238Z,2.83
2018-11-02T18:13:48.978Z,2.50
2018-11-02T18:16:17.533Z,2.97
2018-11-02T18:18:46.181Z,3.03
2018-11-02T18:21:14.810Z,2.70
2018-11-02T18:23:43.512Z,2.60
2018-11-02T18:26:12.118Z,3.10
2018-11-02T18:28:40.860Z,2.90
2018-11-02T18:31:09.567Z,3.27
2018-11-02T18:33:38.214Z,3.00
2018-11-02T18:36:06.927Z,3.43
2018-11-02T18:38:35.616Z,3.60
2018-11-02T18:41:04.942Z,3.00
2018-11-02T18:43:33.557Z,3.10
2018-11-02T18:46:02.267Z,2.93
2018-11-02T18:48:31.028Z,2.13
2018-11-02T18:50:59.667Z,1.80
2018-11-02T18:53:28.325Z,1.80
2018-11-02T18:55:57.019Z,2.93
2018-11-02T18:58:25.762Z,3.13
2018-11-02T19:00:54.521Z,3.30
2018-11-02T19:03:23.170Z,3.27
2018-11-02T19:05:52.042Z,3.17
2018-11-02T19:08:20.736Z,2.83
2018-11-02T19:10:49.453Z,3.67
2018-11-02T19:13:18.077Z,3.43
2018-11-02T19:15:46.789Z,3.90
2018-11-02T19:18:15.341Z,3.80
2018-11-02T19:20:44.392Z,3.37
2018-11-02T19:23:13.117Z,3.33
2018-11-02T19:25:42.930Z,3.90
2018-11-02T19:28:11.615Z,4.00
2018-11-02T19:30:40.285Z,3.80
2018-11-02T19:33:09.771Z,3.83
2018-11-02T19:35:38.779Z,3.40
2018-11-02T19:38:07.806Z,3.80
2018-11-02T19:40:36.392Z,4.20
2018-11-02T19:43:05.392Z,4.50
2018-11-02T19:45:34.116Z,4.17
2018-11-02T19:48:04.111Z,4.90
2018-11-02T19:50:32.868Z,4.57
2018-11-02T19:53:01.631Z,4.40
2018-11-02T19:55:30.496Z,4.43
2018-11-02T19:57:59.268Z,4.57
2018-11-02T20:00:28.526Z,4.13
2018-11-02T20:02:57.321Z,4.70
2018-11-02T20:05:26.104Z,4.40
2018-11-02T20:07:54.837Z,4.63
2018-11-02T20:10:23.689Z,3.93
2018-11-02T20:12:52.414Z,5.60
2018-11-02T20:15:21.230Z,5.20
2018-11-02T20:17:50.679Z,6.93
2018-11-02T20:20:19.278Z,5.73
2018-11-02T20:22:48.047Z,5.00
2018-11-02T20:25:17.627Z,4.77
2018-11-02T20:27:46.316Z,5.17
2018-11-02T20:30:16.910Z,4.33
2018-11-02T20:32:45.983Z,4.43
2018-11-02T20:35:15.131Z,4.50
2018-11-02T20:37:43.951Z,4.70
2018-11-02T20:40:15.081Z,4.07
2018-11-02T20:42:44.499Z,4.90
2018-11-02T20:45:14.058Z,4.90
2018-11-02T20:47:48.061Z,4.93
2018-11-02T20:50:16.821Z,5.13
2018-11-02T20:52:45.554Z,5.83
2018-11-02T20:55:14.860Z,5.30
2018-11-02T20:57:43.639Z,5.00
2018-11-02T21:00:15.136Z,5.50
2018-11-02T21:02:44.363Z,6.90
2018-11-02T21:05:14.301Z,7.70
2018-11-02T21:07:44.132Z,6.40
2018-11-02T21:10:14.084Z,6.43
2018-11-02T21:12:42.875Z,6.60
2018-11-02T21:15:14.947Z,7.13
2018-11-02T21:17:43.741Z,6.40
2018-11-02T21:20:14.892Z,6.37
2018-11-02T21:22:44.013Z,6.97
2018-11-02T21:25:13.462Z,6.60
2018-11-02T21:27:42.870Z,7.30
2018-11-02T21:30:14.361Z,6.57
2018-11-02T21:32:43.596Z,6.50
2018-11-02T21:35:12.506Z,6.33
2018-11-02T21:37:41.464Z,5.50
2018-11-02T21:40:13.461Z,6.00
2018-11-02T21:42:43.353Z,6.07
2018-11-02T21:45:13.463Z,7.10
2018-11-02T21:47:42.325Z,6.93
2018-11-02T21:50:11.760Z,7.07
2018-11-02T21:52:40.574Z,7.13
2018-11-02T21:55:09.434Z,7.00
2018-11-02T21:57:38.323Z,7.07
2018-11-02T22:00:09.086Z,6.93
2018-11-02T22:02:37.871Z,6.50
2018-11-02T22:05:07.340Z,6.03
2018-11-02T22:07:35.983Z,6.30
2018-11-02T22:10:06.047Z,6.47
2018-11-02T22:12:35.520Z,6.57
2018-11-02T22:15:04.644Z,6.20
2018-11-02T22:17:33.497Z,6.67
2018-11-02T22:20:02.366Z,5.43
2018-11-02T22:22:38.559Z,5.60
2018-11-02T22:25:18.201Z,5.80
2018-11-02T22:27:58.054Z,5.70
2018-11-02T22:30:27.443Z,5.83
2018-11-02T22:32:56.330Z,6.67
2018-11-02T22:35:25.872Z,5.27
2018-11-02T22:37:54.729Z,5.23
2018-11-02T22:40:23.600Z,4.50
2018-11-02T22:42:52.281Z,4.43
2018-11-02T22:45:20.898Z,4.93
2018-11-02T22:47:54.776Z,5.13
2018-11-02T22:50:23.475Z,5.47
2018-11-02T22:52:52.081Z,5.53
2018-11-02T22:55:20.685Z,6.57
2018-11-02T22:57:49.667Z,9.00
2018-11-02T23:00:19.176Z,8.37
2018-11-02T23:02:48.724Z,8.03
2018-11-02T23:05:17.658Z,7.40
2018-11-02T23:07:46.431Z,7.30
2018-11-02T23:10:15.291Z,13.13
2018-11-02T23:12:43.966Z,12.43
2018-11-02T23:15:13.097Z,8.23
2018-11-02T23:17:42.124Z,8.00
2018-11-02T23:20:13.356Z,6.37
2018-11-02T23:22:42.003Z,6.50
2018-11-02T23:25:11.693Z,5.70
2018-11-02T23:27:41.818Z,6.63
2018-11-02T23:30:11.292Z,5.80
2018-11-02T23:32:39.828Z,5.70
2018-11-02T23:35:09.193Z,5.40
2018-11-02T23:37:38.111Z,6.07
2018-11-02T23:40:07.650Z,5.67
2018-11-02T23:42:36.509Z,5.63
2018-11-02T23:45:06.175Z,5.93
2018-11-02T23:47:34.879Z,5.27
2018-11-02T23:50:04.153Z,5.60
2018-11-02T23:52:33.719Z,5.27
2018-11-02T23:55:02.560Z,6.40
2018-11-02T23:57:31.237Z,5.53
2018-11-02T23:59:59.940Z,5.23
